Time;durP1;ratioP1;P1;durP2;ratioP2;P2;SDS_P1;SDS_P2;PMS_P1;PMS_P2;Temp;Humidity;BMP_temperature;BMP_pressure;BME280_temperature;BME280_humidity;BME280_pressure;Samples;Min_cycle;Max_cycle;Signal;HPM_P1;HPM_P2
2021/05/13 00:01:06;;;;;;;50.17;30.92;;;;;;;;;;5092734;28;20020;-56
2021/05/13 00:03:35;;;;;;;58.47;38.80;;;;;;;;;;5092585;28;20468;-55
2021/05/13 00:06:01;;;;;;;58.25;37.38;;;;;;;;;;5092678;28;20070;-56
2021/05/13 00:08:28;;;;;;;68.25;41.53;;;;;;;;;;5092751;28;20039;-55
2021/05/13 00:11:02;;;;;;;65.80;42.00;;;;;;;;;;5092411;28;20569;-55
2021/05/13 00:13:29;;;;;;;52.22;29.75;;;;;;;;;;5092685;28;20028;-54
2021/05/13 00:15:55;;;;;;;32.88;20.10;;;;;;;;;;5092537;28;20491;-55
2021/05/13 00:18:21;;;;;;;34.38;20.67;;;;;;;;;;5092436;28;20050;-57
2021/05/13 00:20:47;;;;;;;36.75;24.83;;;;;;;;;;5092412;28;20016;-54
2021/05/13 00:23:13;;;;;;;49.85;30.35;;;;;;;;;;5092446;28;20070;-56
2021/05/13 00:25:40;;;;;;;53.08;32.08;;;;;;;;;;5092472;28;20020;-57
2021/05/13 00:28:06;;;;;;;32.78;21.13;;;;;;;;;;5096195;28;20074;-57
2021/05/13 00:30:32;;;;;;;33.90;20.77;;;;;;;;;;5096172;28;20008;-57
2021/05/13 00:32:58;;;;;;;27.25;13.27;;;;;;;;;;5096053;28;20024;-55
2021/05/13 00:35:25;;;;;;;20.02;11.40;;;;;;;;;;5096121;28;20019;-53
2021/05/13 00:37:51;;;;;;;26.88;16.88;;;;;;;;;;5096223;28;20059;-54
2021/05/13 00:40:18;;;;;;;29.45;19.67;;;;;;;;;;5096555;28;20396;-53
2021/05/13 00:42:44;;;;;;;26.75;16.08;;;;;;;;;;5096599;28;20111;-54
2021/05/13 00:45:14;;;;;;;24.60;16.92;;;;;;;;;;5096677;28;20020;-55
2021/05/13 00:50:31;;;;;;;17.13;12.98;;;;;;;;;;5033138;28;20124;-53
2021/05/13 00:52:57;;;;;;;58.28;38.75;;;;;;;;;;5033459;28;20084;-54
2021/05/13 00:55:23;;;;;;;72.55;40.63;;;;;;;;;;5033499;28;20486;-54
2021/05/13 00:57:53;;;;;;;66.45;43.38;;;;;;;;;;5033273;28;20120;-54
2021/05/13 01:02:57;;;;;;;34.25;20.27;;;;;;;;;;5033463;28;20029;-55
2021/05/13 01:05:23;;;;;;;34.67;22.75;;;;;;;;;;5033233;28;20504;-53
2021/05/13 01:07:50;;;;;;;25.95;16.95;;;;;;;;;;5033064;28;20041;-54
2021/05/13 01:10:16;;;;;;;23.27;12.00;;;;;;;;;;5033094;28;20108;-54
2021/05/13 01:12:43;;;;;;;26.75;16.67;;;;;;;;;;5032962;28;20088;-53
2021/05/13 01:15:25;;;;;;;23.60;16.58;;;;;;;;;;5033072;28;20060;-53
2021/05/13 01:18:06;;;;;;;18.80;10.68;;;;;;;;;;5033731;28;20040;-53
2021/05/13 01:20:32;;;;;;;21.35;12.05;;;;;;;;;;5033596;28;20030;-54
2021/05/13 01:22:59;;;;;;;19.98;10.02;;;;;;;;;;5033548;28;20064;-52
2021/05/13 01:25:26;;;;;;;30.08;10.20;;;;;;;;;;5033520;28;20061;-53
2021/05/13 01:28:00;;;;;;;12.05;5.93;;;;;;;;;;5074169;28;20038;-53
2021/05/13 01:30:27;;;;;;;15.40;6.20;;;;;;;;;;5095790;28;20024;-53
2021/05/13 01:32:55;;;;;;;16.17;6.68;;;;;;;;;;5095439;28;20027;-53
2021/05/13 01:35:21;;;;;;;16.50;6.82;;;;;;;;;;5095693;28;20107;-53
2021/05/13 01:37:47;;;;;;;8.23;4.70;;;;;;;;;;5094718;28;20031;-53
2021/05/13 01:40:14;;;;;;;7.57;3.80;;;;;;;;;;5095271;28;20024;-54
2021/05/13 01:42:40;;;;;;;5.53;3.22;;;;;;;;;;5095344;28;20028;-54
2021/05/13 01:45:06;;;;;;;7.70;3.53;;;;;;;;;;5095309;28;20035;-52
2021/05/13 01:47:36;;;;;;;10.15;3.13;;;;;;;;;;5095463;28;20072;-53
2021/05/13 01:50:03;;;;;;;13.15;5.22;;;;;;;;;;5095249;28;20028;-53
2021/05/13 01:52:29;;;;;;;13.13;5.50;;;;;;;;;;5095012;28;20629;-54
2021/05/13 01:54:55;;;;;;;9.02;3.33;;;;;;;;;;5095169;28;20051;-53
2021/05/13 01:57:21;;;;;;;8.00;3.20;;;;;;;;;;5094986;28;20024;-53
2021/05/13 01:59:49;;;;;;;7.32;3.53;;;;;;;;;;5095119;28;20025;-53
2021/05/13 02:02:20;;;;;;;9.43;2.88;;;;;;;;;;5095005;28;20097;-53
2021/05/13 02:04:47;;;;;;;5.90;2.58;;;;;;;;;;5095102;28;20075;-54
2021/05/13 02:07:14;;;;;;;9.73;3.63;;;;;;;;;;5094690;28;20028;-54
2021/05/13 02:09:40;;;;;;;5.13;2.58;;;;;;;;;;5094690;28;20024;-53
2021/05/13 02:12:06;;;;;;;7.03;2.42;;;;;;;;;;5094497;28;20051;-54
2021/05/13 02:14:32;;;;;;;8.10;3.70;;;;;;;;;;5094961;28;20422;-53
2021/05/13 02:16:58;;;;;;;8.35;3.38;;;;;;;;;;5094718;28;20062;-54
2021/05/13 02:19:24;;;;;;;8.00;3.00;;;;;;;;;;5094824;28;20020;-53
2021/05/13 02:21:50;;;;;;;8.93;3.53;;;;;;;;;;5094717;28;20077;-53
2021/05/13 02:24:17;;;;;;;10.32;3.53;;;;;;;;;;5094541;28;20429;-53
2021/05/13 02:26:43;;;;;;;4.63;3.00;;;;;;;;;;5094467;28;20110;-54
2021/05/13 02:29:09;;;;;;;6.28;2.83;;;;;;;;;;5094474;28;20051;-53
2021/05/13 02:31:35;;;;;;;6.80;3.30;;;;;;;;;;5094386;28;20032;-53
2021/05/13 02:34:01;;;;;;;6.70;3.67;;;;;;;;;;5094414;28;20035;-53
2021/05/13 02:36:27;;;;;;;7.22;3.78;;;;;;;;;;5094349;28;20024;-53
2021/05/13 02:38:53;;;;;;;7.70;4.18;;;;;;;;;;5094293;28;20089;-53
2021/05/13 02:41:19;;;;;;;9.52;4.20;;;;;;;;;;5094062;28;20118;-54
2021/05/13 02:43:48;;;;;;;8.05;4.13;;;;;;;;;;5094224;28;20034;-54
2021/05/13 02:46:14;;;;;;;6.65;4.07;;;;;;;;;;5094138;28;20024;-54
2021/05/13 02:48:42;;;;;;;7.63;4.68;;;;;;;;;;5094275;28;20031;-54
2021/05/13 02:51:08;;;;;;;7.70;4.60;;;;;;;;;;5093213;28;20498;-53
2021/05/13 02:53:34;;;;;;;6.35;4.15;;;;;;;;;;5093957;28;20480;-54
2021/05/13 02:56:02;;;;;;;8.35;4.82;;;;;;;;;;5093846;28;20077;-53
2021/05/13 02:58:28;;;;;;;5.93;4.43;;;;;;;;;;5094077;28;20400;-54
2021/05/13 03:01:07;;;;;;;9.65;4.93;;;;;;;;;;5093999;28;20027;-54
2021/05/13 03:03:33;;;;;;;8.00;4.93;;;;;;;;;;5093759;28;20089;-54
2021/05/13 03:05:59;;;;;;;5.95;4.70;;;;;;;;;;5093787;28;20503;-54
2021/05/13 03:08:26;;;;;;;8.30;5.07;;;;;;;;;;5093587;28;20127;-53
2021/05/13 03:10:54;;;;;;;8.02;5.20;;;;;;;;;;5093643;28;20040;-54
2021/05/13 03:13:23;;;;;;;8.68;5.13;;;;;;;;;;5093792;28;20028;-53
2021/05/13 03:15:49;;;;;;;7.65;5.47;;;;;;;;;;5093721;28;20024;-51
2021/05/13 03:18:16;;;;;;;9.18;5.35;;;;;;;;;;5093718;28;20063;-53
2021/05/13 03:20:47;;;;;;;10.63;5.43;;;;;;;;;;5093528;28;20064;-54
2021/05/13 03:23:13;;;;;;;10.93;6.47;;;;;;;;;;5093435;28;20476;-54
2021/05/13 03:25:42;;;;;;;28.60;17.85;;;;;;;;;;5093535;28;20119;-53
2021/05/13 03:28:11;;;;;;;20.75;10.43;;;;;;;;;;5093495;28;20042;-54
2021/05/13 03:30:37;;;;;;;24.98;16.05;;;;;;;;;;5093561;28;20012;-54
2021/05/13 03:33:04;;;;;;;13.07;9.23;;;;;;;;;;5093720;28;20020;-54
2021/05/13 03:35:30;;;;;;;14.98;11.00;;;;;;;;;;5093523;28;20024;-55
2021/05/13 03:37:56;;;;;;;11.27;7.53;;;;;;;;;;5093142;28;20426;-54
2021/05/13 03:40:22;;;;;;;12.60;7.55;;;;;;;;;;5093299;28;20109;-53
2021/05/13 03:42:48;;;;;;;15.90;11.45;;;;;;;;;;5093521;28;20403;-53
2021/05/13 03:45:14;;;;;;;16.60;9.30;;;;;;;;;;5093544;28;20044;-54
2021/05/13 03:47:40;;;;;;;11.20;7.53;;;;;;;;;;5093479;28;20024;-53
2021/05/13 03:50:08;;;;;;;16.42;10.95;;;;;;;;;;5093317;28;20016;-53
2021/05/13 03:52:35;;;;;;;14.48;9.93;;;;;;;;;;5093290;28;20485;-53
2021/05/13 03:55:01;;;;;;;18.15;13.60;;;;;;;;;;5093277;28;20020;-54
2021/05/13 03:57:27;;;;;;;21.08;15.70;;;;;;;;;;5093149;28;20089;-54
2021/05/13 03:59:56;;;;;;;14.43;10.32;;;;;;;;;;5093168;28;20376;-55
2021/05/13 04:02:32;;;;;;;12.32;8.90;;;;;;;;;;5096132;28;20058;-54
2021/05/13 04:04:58;;;;;;;13.05;8.98;;;;;;;;;;5097579;28;20025;-56
2021/05/13 04:07:27;;;;;;;15.38;9.43;;;;;;;;;;5097134;28;20353;-55
2021/05/13 04:09:55;;;;;;;13.75;7.95;;;;;;;;;;5096973;28;20081;-55
2021/05/13 04:12:21;;;;;;;15.13;8.85;;;;;;;;;;5096946;28;20051;-55
2021/05/13 04:14:47;;;;;;;16.13;9.20;;;;;;;;;;5097148;28;20511;-55
2021/05/13 04:17:13;;;;;;;16.08;9.73;;;;;;;;;;5097093;28;20499;-54
2021/05/13 04:19:39;;;;;;;10.88;7.88;;;;;;;;;;5097109;28;20063;-54
2021/05/13 04:22:05;;;;;;;17.20;9.20;;;;;;;;;;5095625;28;20050;-54
2021/05/13 04:24:31;;;;;;;12.85;8.75;;;;;;;;;;5097133;28;20031;-54
2021/05/13 04:26:57;;;;;;;10.88;7.82;;;;;;;;;;5096906;28;20031;-54
2021/05/13 04:29:24;;;;;;;9.52;7.32;;;;;;;;;;5097068;28;20035;-54
2021/05/13 04:31:50;;;;;;;9.50;6.63;;;;;;;;;;5096807;28;20073;-54
2021/05/13 04:34:16;;;;;;;11.18;8.68;;;;;;;;;;5096651;28;20028;-55
2021/05/13 04:36:42;;;;;;;13.90;8.32;;;;;;;;;;5096538;28;20070;-54
2021/05/13 04:39:08;;;;;;;14.05;10.13;;;;;;;;;;5096643;28;20024;-55
2021/05/13 04:41:34;;;;;;;22.02;13.20;;;;;;;;;;5096506;28;20434;-55
2021/05/13 04:44:05;;;;;;;12.65;8.55;;;;;;;;;;5095428;28;20024;-54
2021/05/13 04:46:32;;;;;;;11.57;8.83;;;;;;;;;;5096411;28;20464;-54
2021/05/13 04:51:29;;;;;;;18.00;11.48;;;;;;;;;;5096449;28;20074;-55
2021/05/13 04:53:55;;;;;;;21.35;15.13;;;;;;;;;;5096338;28;20028;-54
2021/05/13 04:56:21;;;;;;;23.33;15.25;;;;;;;;;;5095901;28;20024;-54
2021/05/13 04:58:48;;;;;;;13.68;8.38;;;;;;;;;;5095199;28;20519;-55
2021/05/13 05:01:15;;;;;;;32.60;17.95;;;;;;;;;;5096191;28;20361;-55
2021/05/13 05:03:43;;;;;;;36.45;21.13;;;;;;;;;;5096226;28;20446;-55
2021/05/13 05:06:11;;;;;;;24.40;15.35;;;;;;;;;;5095706;28;20041;-54
2021/05/13 05:08:38;;;;;;;28.95;15.40;;;;;;;;;;5096115;28;20035;-54
2021/05/13 05:11:07;;;;;;;18.40;11.50;;;;;;;;;;5095813;28;20044;-53
2021/05/13 05:13:33;;;;;;;11.57;8.45;;;;;;;;;;5094915;28;20028;-53
2021/05/13 05:15:59;;;;;;;11.73;7.25;;;;;;;;;;5095850;28;20081;-54
2021/05/13 05:18:26;;;;;;;14.60;8.38;;;;;;;;;;5095913;28;20071;-54
2021/05/13 05:20:52;;;;;;;18.60;9.98;;;;;;;;;;5095606;28;20023;-54
2021/05/13 05:23:19;;;;;;;18.88;9.00;;;;;;;;;;5095653;28;20464;-54
2021/05/13 05:25:45;;;;;;;10.95;7.00;;;;;;;;;;5094565;28;20554;-53
2021/05/13 05:28:11;;;;;;;17.08;7.03;;;;;;;;;;5095774;28;20085;-52
2021/05/13 05:30:38;;;;;;;11.05;6.90;;;;;;;;;;5095565;28;20020;-52
2021/05/13 05:33:04;;;;;;;19.13;11.68;;;;;;;;;;5095558;28;20024;-52
2021/05/13 05:35:31;;;;;;;19.13;9.68;;;;;;;;;;5095455;28;20044;-52
2021/05/13 05:37:57;;;;;;;31.42;16.13;;;;;;;;;;5095565;28;20452;-52
2021/05/13 05:40:23;;;;;;;26.55;15.88;;;;;;;;;;5095391;28;20024;-52
2021/05/13 05:42:53;;;;;;;20.45;12.52;;;;;;;;;;5095212;28;20039;-51
2021/05/13 05:45:23;;;;;;;16.77;9.88;;;;;;;;;;5095281;28;20534;-51
2021/05/13 05:47:49;;;;;;;27.08;16.67;;;;;;;;;;5095205;28;20028;-51
2021/05/13 05:50:16;;;;;;;28.50;16.50;;;;;;;;;;5095040;28;20376;-52
2021/05/13 05:52:42;;;;;;;26.48;13.73;;;;;;;;;;5095049;28;20035;-52
2021/05/13 05:55:09;;;;;;;29.60;17.60;;;;;;;;;;5095116;28;20423;-52
2021/05/13 05:57:35;;;;;;;16.63;10.02;;;;;;;;;;5095310;28;20123;-52
2021/05/13 06:00:03;;;;;;;27.30;14.48;;;;;;;;;;5095058;28;20086;-52
2021/05/13 06:02:29;;;;;;;30.83;19.48;;;;;;;;;;5095017;28;20043;-53
2021/05/13 06:04:55;;;;;;;42.10;25.88;;;;;;;;;;5094950;28;20016;-52
2021/05/13 06:07:22;;;;;;;31.40;19.08;;;;;;;;;;5094818;28;20065;-52
2021/05/13 06:09:48;;;;;;;16.63;10.02;;;;;;;;;;5094712;28;20036;-52
2021/05/13 06:12:15;;;;;;;27.60;17.50;;;;;;;;;;5094808;28;20076;-52
2021/05/13 06:14:41;;;;;;;25.17;14.57;;;;;;;;;;5094692;28;20465;-52
2021/05/13 06:17:09;;;;;;;11.27;7.03;;;;;;;;;;5094670;28;20024;-52
2021/05/13 06:19:35;;;;;;;14.23;8.23;;;;;;;;;;5094511;28;20058;-52
2021/05/13 06:22:01;;;;;;;8.82;6.32;;;;;;;;;;5094776;28;20020;-53
2021/05/13 06:24:27;;;;;;;8.23;6.15;;;;;;;;;;5094399;28;20490;-54
2021/05/13 06:27:00;;;;;;;8.02;5.70;;;;;;;;;;5094605;28;20034;-52
2021/05/13 06:29:28;;;;;;;7.53;4.75;;;;;;;;;;5094651;28;20024;-52
2021/05/13 06:31:54;;;;;;;9.50;6.55;;;;;;;;;;5094404;28;20498;-50
2021/05/13 06:34:20;;;;;;;9.63;6.95;;;;;;;;;;5094363;28;20028;-53
2021/05/13 06:36:46;;;;;;;14.27;7.78;;;;;;;;;;5094465;28;20020;-52
2021/05/13 06:39:12;;;;;;;8.23;4.13;;;;;;;;;;5093056;28;20093;-53
2021/05/13 06:41:42;;;;;;;10.00;6.50;;;;;;;;;;5094122;28;20110;-53
2021/05/13 06:44:08;;;;;;;8.52;4.40;;;;;;;;;;5094228;28;20040;-53
2021/05/13 06:46:34;;;;;;;11.32;6.30;;;;;;;;;;5094141;28;20026;-52
2021/05/13 06:49:00;;;;;;;9.55;5.57;;;;;;;;;;5094013;28;20020;-52
2021/05/13 06:51:26;;;;;;;8.27;4.88;;;;;;;;;;5094154;28;20024;-53
2021/05/13 06:53:53;;;;;;;10.70;4.22;;;;;;;;;;5093834;28;20107;-52
2021/05/13 06:56:21;;;;;;;5.82;3.72;;;;;;;;;;5094135;28;20024;-53
2021/05/13 06:58:47;;;;;;;5.20;2.78;;;;;;;;;;5094124;28;20392;-52
2021/05/13 07:01:13;;;;;;;3.42;2.58;;;;;;;;;;5093975;28;20031;-52
2021/05/13 07:03:39;;;;;;;6.20;3.65;;;;;;;;;;5093812;28;20392;-53
2021/05/13 07:06:05;;;;;;;4.82;2.40;;;;;;;;;;5093964;28;20058;-53
2021/05/13 07:08:32;;;;;;;5.20;3.17;;;;;;;;;;5093639;28;20178;-53
2021/05/13 07:10:59;;;;;;;7.13;3.10;;;;;;;;;;5093546;28;20043;-54
2021/05/13 07:13:26;;;;;;;3.92;2.50;;;;;;;;;;5093694;28;20045;-53
2021/05/13 07:15:52;;;;;;;7.32;2.60;;;;;;;;;;5092639;28;20111;-53
2021/05/13 07:18:18;;;;;;;5.95;2.13;;;;;;;;;;5093631;28;20036;-54
2021/05/13 07:20:45;;;;;;;13.23;6.07;;;;;;;;;;5093862;28;20048;-52
2021/05/13 07:23:12;;;;;;;8.45;4.25;;;;;;;;;;5093851;28;20422;-52
2021/05/13 07:25:38;;;;;;;6.20;3.15;;;;;;;;;;5093722;28;20055;-52
2021/05/13 07:28:04;;;;;;;4.97;3.60;;;;;;;;;;5093701;28;20376;-53
2021/05/13 07:30:31;;;;;;;6.60;3.40;;;;;;;;;;5093659;28;20111;-51
2021/05/13 07:32:57;;;;;;;4.32;2.55;;;;;;;;;;5093541;28;20049;-51
2021/05/13 07:35:23;;;;;;;7.95;5.03;;;;;;;;;;5093503;28;20056;-52
2021/05/13 07:37:50;;;;;;;6.05;2.58;;;;;;;;;;5092508;28;20111;-52
2021/05/13 07:40:18;;;;;;;17.88;8.57;;;;;;;;;;5092730;28;20073;-50
2021/05/13 07:42:44;;;;;;;35.30;23.00;;;;;;;;;;5093231;28;20058;-51
2021/05/13 07:45:16;;;;;;;4.05;3.13;;;;;;;;;;5092874;28;20027;-51
2021/05/13 07:47:46;;;;;;;17.55;10.85;;;;;;;;;;5092708;28;20024;-52
2021/05/13 07:50:13;;;;;;;14.07;8.80;;;;;;;;;;5092728;28;20544;-53
2021/05/13 07:52:40;;;;;;;17.20;7.10;;;;;;;;;;5092769;28;20139;-53
2021/05/13 07:55:06;;;;;;;8.68;4.35;;;;;;;;;;5092615;28;20034;-54
2021/05/13 07:57:33;;;;;;;10.93;3.80;;;;;;;;;;5093153;28;20472;-53
2021/05/13 07:59:59;;;;;;;9.45;3.08;;;;;;;;;;5093014;28;20388;-53
2021/05/13 08:02:25;;;;;;;4.78;2.70;;;;;;;;;;5092896;28;20365;-54
2021/05/13 08:04:51;;;;;;;4.05;2.60;;;;;;;;;;5091272;28;20070;-52
2021/05/13 08:07:20;;;;;;;9.20;3.50;;;;;;;;;;5092627;28;20035;-52
2021/05/13 08:09:46;;;;;;;5.50;2.53;;;;;;;;;;5092239;28;20027;-53
2021/05/13 08:12:12;;;;;;;16.88;8.43;;;;;;;;;;5092211;28;20048;-49
2021/05/13 08:14:38;;;;;;;41.35;28.75;;;;;;;;;;5092631;28;20048;-52
2021/05/13 08:17:05;;;;;;;29.60;17.83;;;;;;;;;;5092387;28;20035;-51
2021/05/13 08:19:31;;;;;;;46.15;30.25;;;;;;;;;;5092784;28;20501;-52
2021/05/13 08:21:57;;;;;;;73.07;45.97;;;;;;;;;;5092582;28;20018;-56
2021/05/13 08:24:23;;;;;;;19.65;11.43;;;;;;;;;;5092529;28;20031;-51
2021/05/13 08:26:49;;;;;;;90.45;49.95;;;;;;;;;;5092568;28;20093;-52
2021/05/13 08:29:15;;;;;;;27.80;15.60;;;;;;;;;;5092543;28;20021;-51
2021/05/13 08:31:41;;;;;;;17.98;8.40;;;;;;;;;;5092291;28;20077;-52
2021/05/13 08:34:07;;;;;;;6.78;3.33;;;;;;;;;;5092213;28;20061;-52
2021/05/13 08:36:33;;;;;;;10.35;1.88;;;;;;;;;;5092388;28;20020;-52
2021/05/13 08:38:59;;;;;;;6.35;2.88;;;;;;;;;;5092101;28;20063;-52
2021/05/13 08:41:26;;;;;;;10.18;4.28;;;;;;;;;;5092101;28;20400;-52
2021/05/13 08:43:52;;;;;;;12.40;7.68;;;;;;;;;;5092244;28;20020;-50
2021/05/13 08:46:19;;;;;;;16.17;8.90;;;;;;;;;;5092321;28;20016;-52
2021/05/13 08:48:46;;;;;;;39.13;20.40;;;;;;;;;;5093708;28;20020;-49
2021/05/13 08:51:12;;;;;;;136.05;77.78;;;;;;;;;;5093399;28;20027;-51
2021/05/13 08:53:53;;;;;;;113.72;70.95;;;;;;;;;;5095873;28;20111;-51
2021/05/13 08:56:23;;;;;;;44.42;26.80;;;;;;;;;;5094325;28;20024;-50
2021/05/13 08:58:49;;;;;;;62.45;37.63;;;;;;;;;;5095507;28;20047;-51
2021/05/13 09:01:17;;;;;;;51.88;28.13;;;;;;;;;;5095492;28;20031;-51
2021/05/13 09:03:44;;;;;;;121.07;74.25;;;;;;;;;;5095623;28;20020;-50
2021/05/13 09:06:22;;;;;;;173.57;99.90;;;;;;;;;;5095288;28;20388;-51
2021/05/13 09:08:48;;;;;;;63.00;34.33;;;;;;;;;;5095388;28;20024;-50
2021/05/13 09:11:18;;;;;;;144.40;79.13;;;;;;;;;;5095176;28;20173;-51
2021/05/13 09:13:48;;;;;;;121.68;69.97;;;;;;;;;;5095288;28;20111;-51
2021/05/13 09:16:27;;;;;;;195.98;109.25;;;;;;;;;;5095307;28;20035;-52
2021/05/13 09:18:53;;;;;;;35.65;15.95;;;;;;;;;;5093852;28;20028;-51
2021/05/13 09:21:19;;;;;;;53.63;27.42;;;;;;;;;;5095367;28;20353;-52
2021/05/13 09:23:48;;;;;;;11.50;5.82;;;;;;;;;;5095230;28;20361;-53
2021/05/13 09:26:16;;;;;;;226.75;131.05;;;;;;;;;;5095199;28;20431;-52
2021/05/13 09:28:42;;;;;;;142.40;63.95;;;;;;;;;;5107891;28;20019;-52
2021/05/13 09:31:09;;;;;;;60.75;32.30;;;;;;;;;;5116114;28;20115;-54
2021/05/13 09:33:38;;;;;;;109.32;53.85;;;;;;;;;;5116011;28;20460;-54
2021/05/13 09:36:17;;;;;;;24.77;11.82;;;;;;;;;;5115928;28;20421;-52
2021/05/13 09:38:43;;;;;;;8.02;1.75;;;;;;;;;;5115694;28;20111;-51
2021/05/13 09:41:09;;;;;;;30.13;11.57;;;;;;;;;;5115377;28;20058;-53
2021/05/13 09:43:36;;;;;;;22.23;9.85;;;;;;;;;;5115808;28;20058;-53
2021/05/13 09:46:03;;;;;;;34.92;15.57;;;;;;;;;;5115549;28;20084;-52
2021/05/13 09:48:41;;;;;;;30.60;15.82;;;;;;;;;;5115582;28;20027;-51
2021/05/13 09:51:25;;;;;;;4.95;2.35;;;;;;;;;;5115538;28;20391;-52
2021/05/13 09:54:04;;;;;;;7.20;1.85;;;;;;;;;;5115306;28;20024;-50
2021/05/13 09:56:30;;;;;;;5.32;2.05;;;;;;;;;;5115321;28;20031;-49
2021/05/13 09:58:57;;;;;;;3.35;1.10;;;;;;;;;;5113046;28;20035;-51
2021/05/13 10:01:24;;;;;;;5.90;1.73;;;;;;;;;;5115292;28;20091;-52
2021/05/13 10:03:54;;;;;;;13.15;7.10;;;;;;;;;;5115685;28;20027;-52
2021/05/13 10:06:21;;;;;;;6.47;1.48;;;;;;;;;;5115082;28;20012;-53
2021/05/13 10:08:47;;;;;;;5.30;2.65;;;;;;;;;;5115224;28;20480;-51
2021/05/13 10:11:15;;;;;;;13.73;5.97;;;;;;;;;;5114834;28;20197;-51
2021/05/13 10:13:42;;;;;;;14.18;8.32;;;;;;;;;;5114998;28;20023;-50
2021/05/13 10:16:08;;;;;;;19.20;10.32;;;;;;;;;;5115120;28;20067;-50
2021/05/13 10:18:39;;;;;;;18.60;10.75;;;;;;;;;;5114926;28;20131;-50
2021/05/13 10:21:08;;;;;;;13.25;6.72;;;;;;;;;;5114847;28;20145;-53
2021/05/13 10:23:38;;;;;;;10.98;6.70;;;;;;;;;;5114737;28;20028;-52
2021/05/13 10:26:05;;;;;;;23.10;13.45;;;;;;;;;;5114740;28;20035;-52
2021/05/13 10:28:32;;;;;;;23.25;9.88;;;;;;;;;;5114302;28;20027;-51
2021/05/13 10:30:59;;;;;;;4.95;2.33;;;;;;;;;;5114789;28;20023;-53
2021/05/13 10:33:25;;;;;;;13.85;7.45;;;;;;;;;;5114672;28;20020;-52
2021/05/13 10:36:08;;;;;;;8.38;3.10;;;;;;;;;;5114379;28;20037;-52
2021/05/13 10:38:39;;;;;;;14.15;7.30;;;;;;;;;;5114773;28;20055;-53
2021/05/13 10:41:25;;;;;;;21.48;12.38;;;;;;;;;;5114563;28;20089;-52
2021/05/13 10:43:51;;;;;;;13.55;6.38;;;;;;;;;;5114381;28;20027;-53
2021/05/13 10:46:27;;;;;;;6.22;2.42;;;;;;;;;;5114375;28;20015;-52
2021/05/13 10:48:53;;;;;;;18.25;8.35;;;;;;;;;;5114592;28;20020;-52
2021/05/13 10:51:25;;;;;;;41.40;24.00;;;;;;;;;;5114363;28;20380;-50
2021/05/13 10:53:52;;;;;;;18.65;9.75;;;;;;;;;;5114269;28;20044;-52
2021/05/13 10:56:24;;;;;;;25.95;19.17;;;;;;;;;;5114189;28;20023;-51
2021/05/13 10:58:53;;;;;;;6.35;2.42;;;;;;;;;;5113588;28;20027;-52
2021/05/13 11:01:32;;;;;;;15.75;10.38;;;;;;;;;;5114275;28;20079;-51
2021/05/13 11:04:19;;;;;;;64.97;41.20;;;;;;;;;;5114332;28;20367;-53
2021/05/13 11:06:45;;;;;;;10.98;5.95;;;;;;;;;;5114212;28;20492;-53
2021/05/13 11:09:12;;;;;;;15.52;9.00;;;;;;;;;;5112811;28;20028;-50
2021/05/13 11:11:56;;;;;;;21.17;14.57;;;;;;;;;;5112789;28;20097;-51
2021/05/13 11:14:28;;;;;;;21.77;13.20;;;;;;;;;;5114061;28;20028;-55
2021/05/13 11:16:56;;;;;;;8.32;3.65;;;;;;;;;;5114046;28;20138;-50
2021/05/13 11:19:23;;;;;;;11.70;6.55;;;;;;;;;;5113872;27;20031;-50
2021/05/13 11:22:03;;;;;;;13.10;5.90;;;;;;;;;;5113735;28;20463;-52
2021/05/13 11:24:36;;;;;;;12.20;5.22;;;;;;;;;;5076288;28;20415;-53
2021/05/13 11:27:03;;;;;;;26.27;12.55;;;;;;;;;;5057387;28;20210;-52
2021/05/13 11:29:42;;;;;;;14.23;7.25;;;;;;;;;;5058243;28;20578;-53
2021/05/13 11:32:09;;;;;;;21.77;11.32;;;;;;;;;;5057727;28;20024;-53
2021/05/13 11:34:35;;;;;;;46.42;17.00;;;;;;;;;;5057479;28;20558;-52
2021/05/13 11:37:01;;;;;;;33.63;17.60;;;;;;;;;;5058178;28;20945;-52
2021/05/13 11:39:27;;;;;;;35.20;17.58;;;;;;;;;;5057583;28;20032;-53
2021/05/13 11:42:00;;;;;;;25.60;13.57;;;;;;;;;;5058173;28;20027;-52
2021/05/13 11:44:27;;;;;;;19.23;11.50;;;;;;;;;;5058430;28;20064;-52
2021/05/13 11:46:54;;;;;;;41.03;24.25;;;;;;;;;;5057923;28;20027;-53
2021/05/13 11:49:20;;;;;;;55.47;31.92;;;;;;;;;;5057676;28;20036;-51
2021/05/13 11:51:46;;;;;;;39.47;22.77;;;;;;;;;;5058021;28;21411;-52
2021/05/13 11:54:12;;;;;;;61.53;39.25;;;;;;;;;;5058086;28;20123;-50
2021/05/13 11:56:39;;;;;;;129.85;83.78;;;;;;;;;;5057378;28;20020;-50
2021/05/13 11:59:10;;;;;;;62.83;34.75;;;;;;;;;;5057555;28;20125;-54
2021/05/13 12:01:39;;;;;;;96.07;58.60;;;;;;;;;;5057552;28;20033;-53
2021/05/13 12:04:06;;;;;;;62.88;35.13;;;;;;;;;;5057131;28;20035;-53
2021/05/13 12:06:54;;;;;;;69.30;41.92;;;;;;;;;;5057830;28;20031;-54
2021/05/13 12:09:21;;;;;;;38.80;25.92;;;;;;;;;;5058273;28;20115;-53
2021/05/13 12:11:47;;;;;;;34.38;21.58;;;;;;;;;;5057216;28;20801;-53
2021/05/13 12:14:22;;;;;;;15.30;9.88;;;;;;;;;;5057391;28;20083;-54
2021/05/13 12:16:53;;;;;;;22.27;11.77;;;;;;;;;;5057519;28;20381;-53
2021/05/13 12:19:19;;;;;;;15.43;9.05;;;;;;;;;;5057130;28;20032;-54
2021/05/13 12:21:45;;;;;;;18.92;11.30;;;;;;;;;;5058017;28;20032;-54
2021/05/13 12:24:11;;;;;;;19.80;12.40;;;;;;;;;;5061511;28;20031;-54
2021/05/13 12:26:39;;;;;;;143.95;121.30;;;;;;;;;;5060874;28;20073;-46
2021/05/13 12:29:08;;;;;;;154.27;77.22;;;;;;;;;;5060941;28;20130;-48
2021/05/13 12:31:35;;;;;;;248.73;139.52;;;;;;;;;;5061264;28;20043;-51
2021/05/13 12:34:05;;;;;;;646.92;321.13;;;;;;;;;;5061254;28;20020;-51
2021/05/13 12:36:32;;;;;;;51.40;26.90;;;;;;;;;;5061293;28;20028;-51
2021/05/13 12:38:59;;;;;;;21.83;14.82;;;;;;;;;;5076711;28;20047;-50
2021/05/13 12:41:26;;;;;;;4.32;2.80;;;;;;;;;;5061084;28;20021;-55
2021/05/13 12:44:15;;;;;;;17.85;11.50;;;;;;;;;;5060694;28;21700;-58
2021/05/13 12:46:46;;;;;;;10.43;6.57;;;;;;;;;;5060804;28;20484;-56
2021/05/13 12:49:23;;;;;;;5.60;3.60;;;;;;;;;;5061450;28;20388;-54
2021/05/13 12:52:06;;;;;;;14.82;6.45;;;;;;;;;;5060701;28;20089;-60
2021/05/13 12:54:33;;;;;;;29.63;19.38;;;;;;;;;;5060660;28;20025;-54
2021/05/13 12:57:09;;;;;;;12.50;8.73;;;;;;;;;;5060455;28;20020;-54
2021/05/13 12:59:36;;;;;;;22.88;12.60;;;;;;;;;;5060185;28;20741;-54
2021/05/13 13:02:03;;;;;;;51.28;31.20;;;;;;;;;;5060641;28;20074;-54
2021/05/13 13:04:46;;;;;;;21.98;14.10;;;;;;;;;;5060781;28;20036;-54
2021/05/13 13:07:12;;;;;;;9.60;6.13;;;;;;;;;;5060636;28;20506;-55
2021/05/13 13:09:38;;;;;;;21.70;14.85;;;;;;;;;;5060550;28;20039;-54
2021/05/13 13:12:05;;;;;;;19.13;10.82;;;;;;;;;;5060052;28;20044;-54
2021/05/13 13:14:37;;;;;;;8.88;5.13;;;;;;;;;;5060753;28;20032;-53
2021/05/13 13:17:03;;;;;;;;;;;;;;;;;;5060835;28;20024;-53
2021/05/13 13:19:29;;;;;;;7.50;3.15;;;;;;;;;;5060165;28;20915;-53
2021/05/13 13:21:59;;;;;;;9.88;4.22;;;;;;;;;;5059860;28;20021;-54
2021/05/13 13:24:25;;;;;;;21.55;13.80;;;;;;;;;;5059882;28;20318;-54
2021/05/13 13:27:00;;;;;;;22.00;13.55;;;;;;;;;;5075465;28;20020;-53
2021/05/13 13:29:27;;;;;;;20.08;9.25;;;;;;;;;;5060966;28;20121;-54
2021/05/13 13:31:56;;;;;;;26.92;19.05;;;;;;;;;;5059978;28;20025;-53
2021/05/13 13:34:24;;;;;;;20.70;13.40;;;;;;;;;;5058684;28;20031;-55
2021/05/13 13:36:50;;;;;;;16.92;9.82;;;;;;;;;;5059690;28;20024;-54
2021/05/13 13:39:16;;;;;;;13.85;4.93;;;;;;;;;;5060168;28;20097;-56
2021/05/13 13:41:42;;;;;;;22.73;11.55;;;;;;;;;;5059791;28;20032;-53
2021/05/13 13:44:08;;;;;;;20.55;10.52;;;;;;;;;;5059630;28;20036;-54
2021/05/13 13:46:35;;;;;;;7.60;3.03;;;;;;;;;;5060242;28;20031;-55
2021/05/13 13:49:01;;;;;;;9.32;5.20;;;;;;;;;;5059262;28;20531;-53
2021/05/13 13:51:27;;;;;;;5.05;1.65;;;;;;;;;;5059805;28;20020;-53
2021/05/13 13:53:53;;;;;;;7.25;4.38;;;;;;;;;;5059009;28;20025;-52
2021/05/13 13:56:19;;;;;;;6.72;2.92;;;;;;;;;;5058809;28;20029;-53
2021/05/13 13:58:45;;;;;;;18.75;10.32;;;;;;;;;;5059308;28;20032;-54
2021/05/13 14:01:11;;;;;;;12.95;6.78;;;;;;;;;;5059118;28;20166;-54
2021/05/13 14:03:37;;;;;;;32.03;17.20;;;;;;;;;;5059147;28;20024;-55
2021/05/13 14:06:03;;;;;;;19.45;11.82;;;;;;;;;;5059089;28;20124;-54
2021/05/13 14:08:30;;;;;;;17.83;9.93;;;;;;;;;;5059265;28;20039;-53
2021/05/13 14:10:56;;;;;;;9.57;5.00;;;;;;;;;;5058877;28;20290;-53
2021/05/13 14:13:22;;;;;;;37.58;24.45;;;;;;;;;;5058947;28;20119;-56
2021/05/13 14:15:51;;;;;;;24.70;12.93;;;;;;;;;;5059318;28;20135;-54
2021/05/13 14:18:17;;;;;;;26.23;13.32;;;;;;;;;;5059717;28;20046;-54
2021/05/13 14:20:43;;;;;;;56.30;36.53;;;;;;;;;;5059310;28;20071;-53
2021/05/13 14:23:09;;;;;;;23.30;13.73;;;;;;;;;;5058901;28;20090;-54
2021/05/13 14:25:36;;;;;;;11.00;4.43;;;;;;;;;;5058827;28;20510;-52
2021/05/13 14:28:02;;;;;;;18.92;10.27;;;;;;;;;;5058951;28;20777;-52
2021/05/13 14:30:28;;;;;;;10.15;3.95;;;;;;;;;;5059270;28;20519;-53
2021/05/13 14:32:54;;;;;;;19.40;8.82;;;;;;;;;;5058914;28;20473;-52
2021/05/13 14:35:26;;;;;;;29.08;11.48;;;;;;;;;;5059662;28;20036;-52
2021/05/13 14:37:53;;;;;;;12.73;5.05;;;;;;;;;;5059115;28;20032;-54
2021/05/13 14:40:19;;;;;;;9.38;3.97;;;;;;;;;;5059362;28;20032;-52